Aviation Digital Data Service (ADDS)

Output produced by METARs form (0801 UTC 29 August 2014)
found at http://aviationweather.gov/adds/metars/
 
KBGR 290554Z 2906/3006 33010KT P6SM FEW035 
     TEMPO 2906/2908 OVC025 
     FM291400 35010G16KT P6SM SKC 
     FM300000 VRB03KT P6SM SKC